createdAt,value
2018-07-23T00:01:53.411Z,95.10
2018-07-23T00:05:47.386Z,95.20
2018-07-23T00:09:41.361Z,95.40
2018-07-23T00:13:35.334Z,95.90
2018-07-23T00:17:29.246Z,96.30
2018-07-23T00:21:23.103Z,96.60
2018-07-23T00:25:17.166Z,96.80
2018-07-23T00:29:10.532Z,96.90
2018-07-23T00:33:04.522Z,97.10
2018-07-23T00:36:58.467Z,97.20
2018-07-23T00:40:52.593Z,97.40
2018-07-23T00:44:46.524Z,97.60
2018-07-23T00:48:40.427Z,97.90
2018-07-23T00:52:34.914Z,98.30
2018-07-23T00:56:28.803Z,98.60
2018-07-23T01:00:22.739Z,98.90
2018-07-23T01:04:16.829Z,99.10
2018-07-23T01:08:10.907Z,99.40
2018-07-23T01:12:04.882Z,99.70
2018-07-23T01:15:59.417Z,99.90
2018-07-23T01:19:54.662Z,99.90
2018-07-23T01:23:48.754Z,99.90
2018-07-23T01:27:42.786Z,99.90
2018-07-23T01:31:36.705Z,99.90
2018-07-23T01:35:30.774Z,99.90
2018-07-23T01:39:24.721Z,99.90
2018-07-23T01:43:18.610Z,99.90
2018-07-23T01:47:12.555Z,99.90
2018-07-23T01:51:06.654Z,99.90
2018-07-23T01:55:00.573Z,99.90
2018-07-23T01:58:54.562Z,99.90
2018-07-23T02:02:48.515Z,99.90
2018-07-23T02:06:42.459Z,99.90
2018-07-23T02:10:36.516Z,99.90
2018-07-23T02:14:30.611Z,99.90
2018-07-23T02:18:24.637Z,99.90
2018-07-23T02:22:20.657Z,99.90
2018-07-23T02:26:14.704Z,99.90
2018-07-23T02:30:08.755Z,99.90
2018-07-23T02:34:02.813Z,99.90
2018-07-23T02:37:56.772Z,99.90
2018-07-23T02:41:50.962Z,99.90
2018-07-23T02:45:44.898Z,99.90
2018-07-23T02:49:39.306Z,99.90
2018-07-23T02:53:33.360Z,99.90
2018-07-23T02:57:27.350Z,99.90
2018-07-23T03:01:21.369Z,99.90
2018-07-23T03:05:15.331Z,99.90
2018-07-23T03:09:09.345Z,99.90
2018-07-23T03:13:03.282Z,99.90
2018-07-23T03:16:57.278Z,99.90
2018-07-23T03:20:51.286Z,99.90
2018-07-23T03:24:45.639Z,99.90
2018-07-23T03:28:39.641Z,99.90
2018-07-23T03:32:33.642Z,99.90
2018-07-23T03:36:27.631Z,99.90
2018-07-23T03:40:22.007Z,99.90
2018-07-23T03:44:16.278Z,99.90
2018-07-23T03:48:15.023Z,99.90
2018-07-23T03:52:09.542Z,99.90
2018-07-23T03:56:07.228Z,99.90
2018-07-23T04:00:01.782Z,99.90
2018-07-23T04:03:56.902Z,99.90
2018-07-23T04:07:51.752Z,99.90
2018-07-23T04:11:46.607Z,99.90
2018-07-23T04:15:41.019Z,99.90
2018-07-23T04:19:35.996Z,99.90
2018-07-23T04:23:32.501Z,99.90
2018-07-23T04:31:24.035Z,99.90
2018-07-23T04:35:18.467Z,99.90
2018-07-23T04:39:12.404Z,99.90
2018-07-23T04:43:06.483Z,99.90
2018-07-23T04:47:00.987Z,99.90
2018-07-23T04:50:55.147Z,99.90
2018-07-23T04:54:49.662Z,99.90
2018-07-23T04:58:43.732Z,99.70
2018-07-23T05:02:37.960Z,94.20
2018-07-23T05:06:32.252Z,87.70
2018-07-23T05:10:26.531Z,81.70
2018-07-23T05:14:21.013Z,84.40
2018-07-23T05:18:15.227Z,90.60
2018-07-23T05:26:04.329Z,95.30
2018-07-23T05:33:52.622Z,96.80
2018-07-23T05:37:46.723Z,96.20
2018-07-23T05:41:40.999Z,96.60
2018-07-23T05:45:35.202Z,96.10
2018-07-23T05:49:29.297Z,95.80
2018-07-23T05:53:23.610Z,95.30
2018-07-23T05:57:17.689Z,95.40
2018-07-23T06:01:11.829Z,95.30
2018-07-23T06:05:06.108Z,95.40
2018-07-23T06:09:00.125Z,95.30
2018-07-23T06:12:54.241Z,94.90
2018-07-23T06:16:48.400Z,94.80
2018-07-23T06:20:42.592Z,95.10
2018-07-23T06:24:38.263Z,95.30
2018-07-23T06:28:32.337Z,95.30
2018-07-23T06:32:29.498Z,95.20
2018-07-23T06:36:24.854Z,95.10
2018-07-23T06:40:19.169Z,95.10
2018-07-23T06:44:13.543Z,94.60
2018-07-23T06:48:08.506Z,94.60
2018-07-23T06:52:05.105Z,94.50
2018-07-23T06:56:00.810Z,93.80
2018-07-23T06:59:55.229Z,93.30
2018-07-23T07:03:54.067Z,92.90
2018-07-23T07:07:48.638Z,92.60
2018-07-23T07:11:43.016Z,92.30
2018-07-23T07:15:37.103Z,92.10
2018-07-23T07:19:32.602Z,91.90
2018-07-23T07:27:21.990Z,90.50
2018-07-23T07:31:17.460Z,90.10
2018-07-23T07:35:11.514Z,89.70
2018-07-23T07:39:08.673Z,90.00
2018-07-23T07:43:02.899Z,89.90
2018-07-23T07:46:57.680Z,88.80
2018-07-23T07:50:51.996Z,88.10
2018-07-23T07:54:45.986Z,87.20
2018-07-23T07:58:39.958Z,86.90
2018-07-23T08:02:34.733Z,85.90
2018-07-23T08:06:28.477Z,86.00
2018-07-23T08:10:22.827Z,85.80
2018-07-23T08:14:16.968Z,85.20
2018-07-23T08:18:11.234Z,85.20
2018-07-23T08:22:05.840Z,84.80
2018-07-23T08:26:00.252Z,84.10
2018-07-23T08:29:54.240Z,83.00
2018-07-23T08:33:49.182Z,80.20
2018-07-23T08:37:43.330Z,80.00
2018-07-23T08:41:37.737Z,79.10
2018-07-23T08:45:31.763Z,77.70
2018-07-23T08:49:25.722Z,75.80
2018-07-23T08:53:19.725Z,74.90
2018-07-23T08:57:13.787Z,73.20
2018-07-23T09:01:07.841Z,72.90
2018-07-23T09:05:01.758Z,71.60
2018-07-23T09:08:55.749Z,71.60
2018-07-23T09:12:49.807Z,72.00
2018-07-23T09:20:37.435Z,73.80
2018-07-23T09:24:31.411Z,73.00
2018-07-23T09:28:25.477Z,71.50
2018-07-23T09:32:19.370Z,69.70
2018-07-23T09:40:07.763Z,68.20
2018-07-23T09:44:01.704Z,66.10
2018-07-23T09:47:55.615Z,62.70
2018-07-23T09:51:49.544Z,61.00
2018-07-23T09:55:43.414Z,58.90
2018-07-23T10:03:31.257Z,58.80
2018-07-23T10:07:25.083Z,58.20
2018-07-23T10:11:19.041Z,58.30
2018-07-23T10:15:13.068Z,58.20
2018-07-23T10:19:07.076Z,58.40
2018-07-23T10:23:01.030Z,59.10
2018-07-23T10:26:55.046Z,59.10
2018-07-23T10:30:49.003Z,59.00
2018-07-23T10:34:42.931Z,59.30
2018-07-23T10:38:37.009Z,59.80
2018-07-23T10:42:31.002Z,59.40
2018-07-23T10:46:25.613Z,59.40
2018-07-23T10:50:21.440Z,60.30
2018-07-23T10:54:15.459Z,59.60
2018-07-23T10:58:09.769Z,59.00
2018-07-23T11:02:03.734Z,58.90
2018-07-23T11:05:57.766Z,59.50
2018-07-23T11:09:51.964Z,59.80
2018-07-23T11:13:45.987Z,60.40
2018-07-23T11:17:39.887Z,60.40
2018-07-23T11:21:33.786Z,60.10
2018-07-23T11:25:40.504Z,59.90
2018-07-23T11:29:22.114Z,60.40
2018-07-23T11:33:16.302Z,60.50
2018-07-23T11:37:10.372Z,59.50
2018-07-23T11:41:04.575Z,59.70
2018-07-23T11:44:58.498Z,59.00
2018-07-23T11:48:52.530Z,59.10
2018-07-23T11:52:46.588Z,59.10
2018-07-23T11:56:40.597Z,59.40
2018-07-23T12:00:34.599Z,59.90
2018-07-23T12:04:28.610Z,59.70
2018-07-23T12:08:22.510Z,59.00
2018-07-23T12:12:16.498Z,58.30
2018-07-23T12:16:11.592Z,58.00
2018-07-23T12:20:05.778Z,56.90
2018-07-23T12:23:59.771Z,56.70
2018-07-23T12:27:53.666Z,57.30
2018-07-23T12:31:47.704Z,58.00
2018-07-23T12:35:41.722Z,57.60
2018-07-23T12:39:35.997Z,57.40
2018-07-23T12:43:30.234Z,57.10
2018-07-23T12:47:24.305Z,56.10
2018-07-23T12:51:18.306Z,56.20
2018-07-23T12:55:12.337Z,54.90
2018-07-23T12:59:06.235Z,54.50
2018-07-23T13:03:00.361Z,54.90
2018-07-23T13:06:58.577Z,54.30
2018-07-23T13:11:00.326Z,55.40
2018-07-23T13:14:54.425Z,55.30
2018-07-23T13:18:48.389Z,55.20
2018-07-23T13:22:42.343Z,55.30
2018-07-23T13:26:36.410Z,54.90
2018-07-23T13:30:30.431Z,54.50
2018-07-23T13:34:24.600Z,54.10
2018-07-23T13:38:18.724Z,54.30
2018-07-23T13:42:12.679Z,53.70
2018-07-23T13:46:06.727Z,53.50
2018-07-23T13:53:55.134Z,53.40
2018-07-23T13:57:49.075Z,52.80
2018-07-23T14:01:43.154Z,52.10
2018-07-23T14:05:37.108Z,52.50
2018-07-23T14:09:31.083Z,53.00
2018-07-23T14:13:26.303Z,53.00
2018-07-23T14:17:20.632Z,53.30
2018-07-23T14:21:14.611Z,53.40
2018-07-23T14:25:08.662Z,53.40
2018-07-23T14:29:02.591Z,52.80
2018-07-23T14:32:56.638Z,52.90
2018-07-23T14:36:50.952Z,52.80
2018-07-23T14:40:44.978Z,52.40
2018-07-23T14:44:38.968Z,52.20
2018-07-23T14:48:33.012Z,51.90
2018-07-23T14:52:27.422Z,52.20
2018-07-23T14:56:22.603Z,51.20
2018-07-23T15:00:16.678Z,51.20
2018-07-23T15:04:10.656Z,50.00
2018-07-23T15:08:04.831Z,50.20
2018-07-23T15:11:58.873Z,49.90
2018-07-23T15:15:52.994Z,49.70
2018-07-23T15:19:47.848Z,50.30
2018-07-23T15:27:36.270Z,50.90
2018-07-23T15:31:30.296Z,50.50
2018-07-23T15:35:24.281Z,50.10
2018-07-23T15:39:18.235Z,50.30
2018-07-23T15:43:12.283Z,50.40
2018-07-23T15:47:06.473Z,49.50
2018-07-23T15:51:00.618Z,49.00
2018-07-23T15:54:54.751Z,49.20
2018-07-23T16:02:42.500Z,49.10
2018-07-23T16:06:36.475Z,49.00
2018-07-23T16:10:30.403Z,49.10
2018-07-23T16:14:24.558Z,50.00
2018-07-23T16:18:18.558Z,49.50
2018-07-23T16:22:12.707Z,49.50
2018-07-23T16:26:06.786Z,49.20
2018-07-23T16:30:00.823Z,50.00
2018-07-23T16:33:54.861Z,49.30
2018-07-23T16:37:48.894Z,49.00
2018-07-23T16:45:36.855Z,49.60
2018-07-23T16:49:30.797Z,48.90
2018-07-23T16:53:24.819Z,48.90
2018-07-23T16:57:18.777Z,48.10
2018-07-23T17:01:12.775Z,48.50
2018-07-23T17:05:06.880Z,48.50
2018-07-23T17:09:00.903Z,48.70
2018-07-23T17:12:54.934Z,49.00
2018-07-23T17:16:49.042Z,49.40
2018-07-23T17:20:43.200Z,49.90
2018-07-23T17:24:37.194Z,50.40
2018-07-23T17:28:30.599Z,50.90
2018-07-23T17:32:24.557Z,50.40
2018-07-23T17:36:18.498Z,50.50
2018-07-23T17:40:12.629Z,50.00
2018-07-23T17:44:06.637Z,50.20
2018-07-23T17:48:00.754Z,50.00
2018-07-23T17:51:55.070Z,48.90
2018-07-23T17:55:49.037Z,49.20
2018-07-23T17:59:43.616Z,48.70
2018-07-23T18:03:37.510Z,48.70
2018-07-23T18:07:31.566Z,48.90
2018-07-23T18:11:25.665Z,49.70
2018-07-23T18:15:19.724Z,50.50
2018-07-23T18:19:13.776Z,51.50
2018-07-23T18:23:07.807Z,50.70
2018-07-23T18:27:02.109Z,51.10
2018-07-23T18:30:56.166Z,51.40
2018-07-23T18:34:50.444Z,52.00
2018-07-23T18:38:44.522Z,52.60
2018-07-23T18:42:38.593Z,53.20
2018-07-23T18:46:32.725Z,53.60
2018-07-23T18:50:26.762Z,54.10
2018-07-23T18:54:22.007Z,55.10
2018-07-23T18:58:15.979Z,56.10
2018-07-23T19:02:11.176Z,56.50
2018-07-23T19:06:05.154Z,57.60
2018-07-23T19:09:59.133Z,58.50
2018-07-23T19:13:53.091Z,58.90
2018-07-23T19:17:47.030Z,58.80
2018-07-23T19:21:40.944Z,59.20
2018-07-23T19:25:34.987Z,59.80
2018-07-23T19:29:30.130Z,60.50
2018-07-23T19:33:24.135Z,61.20
2018-07-23T19:37:18.110Z,61.70
2018-07-23T19:41:12.125Z,62.40
2018-07-23T19:45:06.198Z,62.90
2018-07-23T19:49:00.230Z,63.40
2018-07-23T19:52:54.190Z,63.00
2018-07-23T19:56:48.113Z,63.60
2018-07-23T20:00:42.174Z,64.40
2018-07-23T20:04:36.161Z,65.20
2018-07-23T20:08:30.490Z,66.10
2018-07-23T20:12:24.736Z,66.50
2018-07-23T20:16:18.832Z,68.30
2018-07-23T20:20:12.796Z,68.70
2018-07-23T20:24:06.763Z,69.70
2018-07-23T20:28:00.790Z,70.80
2018-07-23T20:31:54.892Z,71.50
2018-07-23T20:35:48.849Z,72.50
2018-07-23T20:39:42.862Z,73.70
2018-07-23T20:43:37.126Z,74.40
2018-07-23T20:47:31.084Z,75.40
2018-07-23T20:51:24.940Z,76.40
2018-07-23T20:55:18.886Z,76.90
2018-07-23T20:59:12.871Z,77.50
2018-07-23T21:03:06.985Z,78.70
2018-07-23T21:07:01.615Z,79.90
2018-07-23T21:10:56.336Z,80.80
2018-07-23T21:14:50.685Z,82.60
2018-07-23T21:18:44.618Z,83.10
2018-07-23T21:22:38.837Z,83.70
2018-07-23T21:26:32.834Z,84.20
2018-07-23T21:30:26.917Z,84.80
2018-07-23T21:34:20.888Z,85.60
2018-07-23T21:38:14.818Z,86.60
2018-07-23T21:42:09.078Z,87.40
2018-07-23T21:46:02.939Z,88.70
2018-07-23T21:49:56.995Z,89.60
2018-07-23T21:53:51.131Z,90.30
2018-07-23T21:57:45.207Z,90.70
2018-07-23T22:01:39.348Z,91.20
2018-07-23T22:05:33.276Z,91.60
2018-07-23T22:09:27.578Z,92.00
2018-07-23T22:13:21.717Z,92.40
2018-07-23T22:17:15.655Z,92.70
2018-07-23T22:21:10.199Z,92.80
2018-07-23T22:25:05.067Z,93.20
2018-07-23T22:28:59.278Z,93.30
2018-07-23T22:32:53.353Z,93.30
2018-07-23T22:36:47.410Z,93.00
2018-07-23T22:40:42.103Z,92.70
2018-07-23T22:44:36.715Z,92.90
2018-07-23T22:48:30.931Z,93.00
2018-07-23T22:52:24.931Z,93.20
2018-07-23T22:56:18.806Z,93.30
2018-07-23T23:00:12.729Z,93.40
2018-07-23T23:04:06.971Z,93.70
2018-07-23T23:08:01.036Z,94.30
2018-07-23T23:11:55.097Z,94.20
2018-07-23T23:15:49.080Z,94.30
2018-07-23T23:19:43.045Z,94.50
2018-07-23T23:23:36.995Z,94.80
2018-07-23T23:27:31.051Z,95.20
2018-07-23T23:31:25.071Z,95.30
2018-07-23T23:35:19.039Z,95.70
2018-07-23T23:39:13.365Z,96.10
2018-07-23T23:43:07.466Z,96.40
2018-07-23T23:47:01.519Z,97.00
2018-07-23T23:50:56.194Z,97.40
2018-07-23T23:54:50.131Z,97.90
2018-07-23T23:58:43.995Z,98.40
